Time;durP1;ratioP1;P1;durP2;ratioP2;P2;SDS_P1;SDS_P2;PMS_P1;PMS_P2;Temp;Humidity;BMP_temperature;BMP_pressure;BME280_temperature;BME280_humidity;BME280_pressure;Samples;Min_cycle;Max_cycle;Signal;HPM_P1;HPM_P2
2022/05/13 00:01:20;;;;;;;8.02;2.00;;;;;;;10.95;66.33;101779.72;4970737;28;20522;-58
2022/05/13 00:03:46;;;;;;;8.30;2.30;;;;;;;10.91;66.33;101783.69;4964438;28;20035;-58
2022/05/13 00:06:12;;;;;;;8.77;2.38;;;;;;;10.83;66.55;101787.94;4972710;28;20038;-58
2022/05/13 00:08:38;;;;;;;11.85;2.70;;;;;;;10.71;66.56;101786.47;4965715;28;20026;-58
2022/05/13 00:11:05;;;;;;;9.90;2.10;;;;;;;10.65;66.87;101786.19;4972112;28;20119;-58
2022/05/13 00:13:30;;;;;;;6.75;2.40;;;;;;;10.65;67.54;101776.41;4973785;28;20030;-58
2022/05/13 00:15:56;;;;;;;8.20;2.50;;;;;;;10.63;67.99;101783.69;4972361;28;20392;-58
2022/05/13 00:18:22;;;;;;;9.35;2.55;;;;;;;10.61;67.98;101777.69;4965702;28;20019;-57
2022/05/13 00:20:47;;;;;;;9.32;2.50;;;;;;;10.61;68.38;101772.38;4968923;28;20480;-58
2022/05/13 00:23:13;;;;;;;12.60;2.92;;;;;;;10.62;68.63;101774.06;4966814;28;20027;-58
2022/05/13 00:25:39;;;;;;;10.65;2.78;;;;;;;10.58;69.01;101780.66;4968700;28;20446;-58
2022/05/13 00:28:06;;;;;;;10.35;3.10;;;;;;;10.54;69.51;101782.75;4965111;28;20035;-58
2022/05/13 00:30:36;;;;;;;16.05;3.25;;;;;;;10.45;69.65;101770.38;4965429;28;20026;-57
2022/05/13 00:33:01;;;;;;;12.38;3.53;;;;;;;10.44;70.09;101768.72;4966292;28;20034;-58
2022/05/13 00:35:27;;;;;;;10.77;3.30;;;;;;;10.43;70.54;101775.00;4975992;28;20030;-59
2022/05/13 00:37:52;;;;;;;10.70;3.58;;;;;;;10.42;70.90;101767.19;4967540;28;20027;-58
2022/05/13 00:40:20;;;;;;;15.27;3.50;;;;;;;10.38;70.77;101774.56;4971075;28;20117;-58
2022/05/13 00:42:46;;;;;;;17.42;3.78;;;;;;;10.37;70.88;101767.59;4969425;28;20027;-56
2022/05/13 00:45:15;;;;;;;13.70;3.90;;;;;;;10.34;70.80;101769.72;4962105;28;20023;-58
2022/05/13 00:47:42;;;;;;;13.68;3.33;;;;;;;10.33;70.98;101765.38;4967235;28;20474;-58
2022/05/13 00:50:12;;;;;;;15.68;3.50;;;;;;;10.30;71.07;101776.31;4970714;28;20085;-59
2022/05/13 00:52:41;;;;;;;14.52;3.75;;;;;;;10.28;71.21;101773.78;4969180;28;20089;-58
2022/05/13 00:55:11;;;;;;;14.50;3.75;;;;;;;10.24;71.31;101773.25;4972215;28;20444;-58
2022/05/13 00:57:38;;;;;;;10.68;3.55;;;;;;;10.13;71.32;101769.91;4965497;28;20035;-58
2022/05/13 01:00:08;;;;;;;13.20;3.83;;;;;;;10.10;71.38;101768.38;4966676;28;20456;-58
2022/05/13 01:02:35;;;;;;;11.27;4.05;;;;;;;10.07;71.49;101758.03;4972249;28;20027;-58
2022/05/13 01:05:05;;;;;;;13.52;3.63;;;;;;;10.04;71.71;101763.63;4971368;28;20519;-58
2022/05/13 01:07:31;;;;;;;12.02;3.13;;;;;;;10.02;71.80;101768.25;4970891;28;20033;-58
2022/05/13 01:10:00;;;;;;;12.07;3.50;;;;;;;10.00;71.76;101769.38;4967982;28;20035;-58
2022/05/13 01:12:34;;;;;;;11.25;3.47;;;;;;;9.97;71.85;101767.03;4971277;28;20242;-58
2022/05/13 01:15:25;;;;;;;13.23;3.60;;;;;;;9.96;72.25;101768.00;4971822;28;20130;-58
2022/05/13 01:18:06;;;;;;;9.52;3.17;;;;;;;9.91;72.10;101765.78;4968067;28;20027;-59
2022/05/13 01:20:45;;;;;;;11.98;3.92;;;;;;;9.88;72.56;101766.06;4971249;28;20044;-58
2022/05/13 01:23:17;;;;;;;9.32;3.88;;;;;;;9.86;72.30;101770.69;4968906;28;20109;-58
2022/05/13 01:25:45;;;;;;;11.73;3.63;;;;;;;9.83;72.44;101765.63;4968993;28;20027;-57
2022/05/13 01:28:14;;;;;;;13.25;3.30;;;;;;;9.80;72.44;101766.75;4969830;28;20082;-57
2022/05/13 01:30:46;;;;;;;10.73;3.65;;;;;;;9.78;72.55;101760.78;4970707;28;20027;-58
2022/05/13 01:33:13;;;;;;;11.60;3.90;;;;;;;9.79;72.74;101764.25;4968676;28;20066;-57
2022/05/13 01:35:44;;;;;;;15.43;4.30;;;;;;;9.78;73.14;101765.25;4969491;28;20389;-58
2022/05/13 01:38:11;;;;;;;15.32;4.43;;;;;;;9.79;73.37;101765.09;4973183;28;20034;-58
2022/05/13 01:40:38;;;;;;;15.32;4.32;;;;;;;9.80;73.59;101771.22;4969766;28;20542;-56
2022/05/13 01:43:03;;;;;;;12.75;4.57;;;;;;;9.81;74.03;101770.25;4970263;28;20436;-57
2022/05/13 01:45:28;;;;;;;10.70;4.43;;;;;;;9.83;73.96;101765.63;4969834;28;20035;-58
2022/05/13 01:47:54;;;;;;;12.23;4.10;;;;;;;9.85;74.02;101775.16;4968549;28;20102;-58
2022/05/13 01:50:20;;;;;;;18.70;4.47;;;;;;;9.87;74.13;101773.19;4975981;28;20033;-57
2022/05/13 01:52:46;;;;;;;11.25;4.22;;;;;;;9.86;74.02;101771.53;4968918;28;20125;-57
2022/05/13 01:55:11;;;;;;;16.27;3.95;;;;;;;9.83;73.96;101768.28;4969581;28;20031;-58
2022/05/13 01:57:36;;;;;;;12.40;4.60;;;;;;;9.85;74.06;101767.19;4969109;28;20124;-58
2022/05/13 02:00:02;;;;;;;10.70;4.03;;;;;;;9.83;73.81;101770.94;4977190;28;20037;-56
2022/05/13 02:02:28;;;;;;;11.82;4.47;;;;;;;9.84;73.90;101764.69;4971505;28;20034;-57
2022/05/13 02:04:53;;;;;;;11.40;4.18;;;;;;;9.81;73.90;101763.13;4977926;28;20042;-56
2022/05/13 02:07:18;;;;;;;9.25;4.35;;;;;;;9.80;74.05;101763.28;4967852;28;20399;-58
2022/05/13 02:09:44;;;;;;;13.98;4.25;;;;;;;9.76;74.13;101765.38;4969332;28;20110;-58
2022/05/13 02:12:09;;;;;;;11.93;5.03;;;;;;;9.78;74.40;101770.53;4968849;28;20471;-57
2022/05/13 02:14:35;;;;;;;17.27;4.55;;;;;;;9.74;74.16;101763.84;4976793;28;20035;-56
2022/05/13 02:17:00;;;;;;;12.23;4.53;;;;;;;9.73;74.57;101755.06;4974311;28;20038;-58
2022/05/13 02:19:25;;;;;;;19.08;4.68;;;;;;;9.70;74.38;101758.00;4972011;28;20046;-58
2022/05/13 02:21:51;;;;;;;12.98;4.35;;;;;;;9.68;74.54;101761.78;4967403;28;20622;-58
2022/05/13 02:24:16;;;;;;;13.82;4.18;;;;;;;9.65;74.19;101762.91;4969297;28;20114;-58
2022/05/13 02:26:41;;;;;;;9.50;3.95;;;;;;;9.63;74.19;101763.03;4971773;28;20034;-58
2022/05/13 02:29:07;;;;;;;10.02;3.85;;;;;;;9.65;74.39;101767.38;4971756;28;20768;-58
2022/05/13 02:31:32;;;;;;;11.07;3.90;;;;;;;9.65;74.21;101764.72;4970828;28;20027;-56
2022/05/13 02:33:58;;;;;;;10.63;4.10;;;;;;;9.67;74.18;101762.75;4971712;28;20472;-58
2022/05/13 02:36:24;;;;;;;11.93;4.00;;;;;;;9.68;74.17;101759.13;4969033;28;20159;-57
2022/05/13 02:38:49;;;;;;;12.75;4.05;;;;;;;9.70;74.45;101767.78;4968940;28;20502;-57
2022/05/13 02:41:14;;;;;;;18.17;4.50;;;;;;;9.69;74.31;101764.28;4969753;28;20035;-58
2022/05/13 02:43:46;;;;;;;10.50;4.00;;;;;;;9.70;74.49;101770.44;4969329;28;20049;-58
2022/05/13 02:46:26;;;;;;;15.27;4.93;;;;;;;9.69;74.66;101761.63;4967093;28;20030;-55
2022/05/13 02:48:52;;;;;;;14.13;4.30;;;;;;;9.70;74.78;101751.84;4967521;28;20118;-58
2022/05/13 02:51:18;;;;;;;14.02;4.05;;;;;;;9.68;74.87;101754.66;4974593;28;20046;-58
2022/05/13 02:53:44;;;;;;;15.45;4.18;;;;;;;9.68;74.69;101759.97;4967456;28;20588;-57
2022/05/13 02:56:10;;;;;;;14.82;4.22;;;;;;;9.68;74.76;101762.63;4969503;28;20042;-57
2022/05/13 02:58:36;;;;;;;15.32;4.28;;;;;;;9.70;75.09;101757.16;4968211;28;20685;-58
2022/05/13 03:01:04;;;;;;;13.43;4.50;;;;;;;9.72;75.15;101763.16;4968385;28;20035;-58
2022/05/13 03:03:30;;;;;;;15.95;4.68;;;;;;;9.71;75.17;101761.50;4971592;28;20041;-57
2022/05/13 03:05:56;;;;;;;10.48;4.60;;;;;;;9.74;75.30;101758.53;4971837;28;20026;-58
2022/05/13 03:08:21;;;;;;;18.48;5.72;;;;;;;9.73;75.33;101759.53;4970292;28;20740;-58
2022/05/13 03:10:46;;;;;;;13.65;5.20;;;;;;;9.75;75.85;101760.22;4967756;28;20030;-57
2022/05/13 03:13:13;;;;;;;13.70;5.18;;;;;;;9.76;76.07;101753.94;4965643;28;20040;-57
2022/05/13 03:15:39;;;;;;;13.73;5.35;;;;;;;9.77;75.95;101758.25;4971646;28;20030;-55
2022/05/13 03:18:04;;;;;;;14.88;4.90;;;;;;;9.78;76.43;101755.47;4974434;28;20035;-56
2022/05/13 03:20:30;;;;;;;17.80;5.50;;;;;;;9.80;76.34;101744.72;4969381;28;20085;-57
2022/05/13 03:22:55;;;;;;;15.93;5.43;;;;;;;9.81;76.58;101738.41;4965620;28;20054;-58
2022/05/13 03:25:22;;;;;;;19.60;6.20;;;;;;;9.82;76.36;101742.75;4967604;28;20030;-58
2022/05/13 03:27:48;;;;;;;17.23;5.40;;;;;;;9.80;76.73;101731.44;4968112;28;20114;-57
2022/05/13 03:30:16;;;;;;;19.23;5.55;;;;;;;9.79;76.69;101748.34;4963518;28;20729;-57
2022/05/13 03:32:41;;;;;;;18.17;5.63;;;;;;;9.78;76.50;101741.38;4966433;28;20030;-57
2022/05/13 03:35:09;;;;;;;15.05;5.68;;;;;;;9.75;77.22;101742.50;4973433;28;20049;-57
2022/05/13 03:37:34;;;;;;;18.10;6.00;;;;;;;9.79;77.40;101748.34;4970239;28;20256;-58
2022/05/13 03:39:59;;;;;;;15.98;6.20;;;;;;;9.77;77.24;101742.34;4963886;28;20693;-57
2022/05/13 03:42:25;;;;;;;18.27;5.93;;;;;;;9.76;77.41;101744.16;4965293;28;20034;-58
2022/05/13 03:44:50;;;;;;;19.98;6.22;;;;;;;9.76;77.56;101749.47;4973565;28;20026;-56
2022/05/13 03:47:16;;;;;;;17.50;5.78;;;;;;;9.72;77.54;101740.13;4968310;28;20034;-58
2022/05/13 03:49:42;;;;;;;19.20;5.90;;;;;;;9.70;77.83;101744.75;4976716;28;20037;-56
2022/05/13 03:52:08;;;;;;;19.42;6.20;;;;;;;9.74;77.97;101750.59;4970417;28;20042;-58
2022/05/13 03:54:33;;;;;;;17.17;6.28;;;;;;;9.74;78.17;101753.25;4967247;28;20034;-57
2022/05/13 03:56:59;;;;;;;18.38;6.25;;;;;;;9.73;78.11;101756.88;4965583;28;20377;-58
2022/05/13 03:59:24;;;;;;;20.55;6.65;;;;;;;9.71;78.27;101751.72;4976344;28;20035;-57
2022/05/13 04:01:49;;;;;;;17.13;6.18;;;;;;;9.71;78.37;101756.19;4968181;28;20069;-57
2022/05/13 04:04:20;;;;;;;17.60;6.28;;;;;;;9.68;78.28;101740.56;4966919;28;20117;-57
2022/05/13 04:09:30;;;;;;;18.42;7.10;;;;;;;9.69;78.65;101740.41;4974998;28;20498;-54
2022/05/13 04:17:23;;;;;;;17.23;6.50;;;;;;;9.71;79.18;101745.56;4963499;28;20050;-58
2022/05/13 04:19:48;;;;;;;18.00;6.80;;;;;;;9.71;79.38;101749.06;4967683;28;20030;-57
2022/05/13 04:22:14;;;;;;;21.50;7.43;;;;;;;9.72;79.53;101745.44;4968203;28;20086;-57
2022/05/13 04:24:39;;;;;;;25.10;7.57;;;;;;;9.74;79.58;101753.25;4970688;28;20030;-58
2022/05/13 04:27:06;;;;;;;18.80;6.90;;;;;;;9.76;79.28;101743.31;4969961;28;20418;-58
2022/05/13 04:29:33;;;;;;;20.30;7.18;;;;;;;9.77;79.72;101752.94;4966990;28;20501;-58
2022/05/13 04:31:58;;;;;;;23.23;7.78;;;;;;;9.79;79.75;101761.59;4965300;28;20041;-58
2022/05/13 04:34:24;;;;;;;22.23;7.75;;;;;;;9.79;79.92;101754.47;4969007;28;20042;-57
2022/05/13 04:36:49;;;;;;;24.52;7.07;;;;;;;9.81;79.75;101771.09;4977093;28;20023;-58
2022/05/13 04:39:14;;;;;;;21.05;7.32;;;;;;;9.83;79.80;101774.47;4978738;28;20415;-56
2022/05/13 04:44:24;;;;;;;19.90;7.30;;;;;;;9.90;79.88;101774.72;4969278;28;20112;-55
2022/05/13 04:46:49;;;;;;;24.42;7.07;;;;;;;9.93;80.03;101774.44;4969522;28;20473;-55
2022/05/13 04:49:15;;;;;;;23.38;7.38;;;;;;;10.02;79.94;101778.03;4976813;28;20039;-55
2022/05/13 04:51:41;;;;;;;21.75;7.85;;;;;;;10.07;79.98;101791.69;4969479;28;20482;-53
2022/05/13 04:54:07;;;;;;;18.55;7.07;;;;;;;10.10;79.80;101789.59;4976620;28;20031;-56
2022/05/13 04:56:32;;;;;;;21.08;7.32;;;;;;;10.14;79.77;101785.69;4968449;28;20448;-54
2022/05/13 04:58:59;;;;;;;21.25;7.20;;;;;;;10.15;79.54;101784.72;4975562;28;20023;-55
2022/05/13 05:01:24;;;;;;;15.82;6.82;;;;;;;10.19;79.33;101794.06;4968172;28;20035;-56
2022/05/13 05:03:50;;;;;;;23.17;6.95;;;;;;;10.23;79.64;101792.81;4966549;28;20503;-55
2022/05/13 05:06:17;;;;;;;24.15;7.20;;;;;;;10.25;79.25;101800.63;4970251;28;20038;-55
2022/05/13 05:08:43;;;;;;;22.13;6.60;;;;;;;10.26;79.21;101801.47;4974153;28;20030;-56
2022/05/13 05:11:10;;;;;;;18.77;7.43;;;;;;;10.27;79.21;101798.66;4965165;28;20031;-56
2022/05/13 05:13:41;;;;;;;17.52;6.72;;;;;;;10.31;79.15;101800.03;4971630;28;20022;-55
2022/05/13 05:16:07;;;;;;;18.15;6.97;;;;;;;10.34;79.05;101809.53;4967042;28;20031;-55
2022/05/13 05:18:34;;;;;;;21.77;7.25;;;;;;;10.36;79.15;101805.75;4967847;28;20053;-54
2022/05/13 05:21:00;;;;;;;21.05;6.90;;;;;;;10.37;79.08;101810.09;4968904;28;20034;-56
2022/05/13 05:23:28;;;;;;;22.77;7.90;;;;;;;10.38;79.11;101821.53;4971251;28;20038;-58
2022/05/13 05:25:54;;;;;;;18.13;7.25;;;;;;;10.38;79.04;101814.41;4971762;28;20109;-58
2022/05/13 05:28:19;;;;;;;22.48;7.18;;;;;;;10.39;79.06;101820.56;4974811;28;20114;-56
2022/05/13 05:30:45;;;;;;;16.73;6.63;;;;;;;10.42;79.26;101825.59;4968802;28;20054;-58
2022/05/13 05:33:12;;;;;;;23.95;7.40;;;;;;;10.45;79.44;101822.66;4970154;28;20106;-58
2022/05/13 05:35:37;;;;;;;21.90;7.60;;;;;;;10.52;79.45;101831.72;4972532;28;20280;-57
2022/05/13 05:38:03;;;;;;;20.65;7.10;;;;;;;10.57;79.31;101839.22;4972362;28;20118;-58
2022/05/13 05:40:29;;;;;;;21.73;7.75;;;;;;;10.62;79.60;101850.25;4970769;28;20388;-58
2022/05/13 05:42:54;;;;;;;28.65;7.57;;;;;;;10.66;79.35;101841.00;4975884;28;20049;-58
2022/05/13 05:45:21;;;;;;;21.80;8.10;;;;;;;10.70;79.78;101847.72;4974761;28;20113;-58
2022/05/13 05:47:48;;;;;;;22.30;8.00;;;;;;;10.73;79.81;101847.44;4967948;28;20127;-58
2022/05/13 05:50:17;;;;;;;21.17;7.65;;;;;;;10.77;79.43;101844.31;4976478;28;20030;-58
2022/05/13 05:52:43;;;;;;;;;;;;;;;10.83;79.60;101850.84;4972329;28;20167;-58
2022/05/13 05:58:15;;;;;;;23.15;7.85;;;;;;;10.95;79.26;101867.44;4966867;28;20029;-57
2022/05/13 06:00:44;;;;;;;24.30;8.15;;;;;;;11.01;79.31;101856.25;4968813;28;20057;-58
2022/05/13 06:03:10;;;;;;;24.27;7.85;;;;;;;11.06;79.32;101860.13;4965241;28;20484;-58
2022/05/13 06:05:35;;;;;;;21.98;7.30;;;;;;;11.14;79.08;101862.03;4966206;28;20034;-58
2022/05/13 06:08:02;;;;;;;25.13;7.80;;;;;;;11.23;78.96;101873.56;4966616;28;20027;-57
2022/05/13 06:10:28;;;;;;;23.55;8.02;;;;;;;11.31;78.69;101869.19;4970850;28;20034;-58
2022/05/13 06:12:53;;;;;;;24.23;7.95;;;;;;;11.38;78.21;101870.25;4974881;28;20027;-58
2022/05/13 06:15:19;;;;;;;22.25;7.90;;;;;;;11.44;78.67;101876.81;4968306;28;20041;-57
2022/05/13 06:17:47;;;;;;;23.75;8.48;;;;;;;11.48;78.55;101875.50;4969573;28;20174;-58
2022/05/13 06:20:15;;;;;;;24.10;8.70;;;;;;;11.55;78.63;101886.38;4967089;28;20035;-58
2022/05/13 06:22:40;;;;;;;22.25;8.77;;;;;;;11.56;78.08;101872.09;4969927;28;20046;-58
2022/05/13 06:25:08;;;;;;;26.50;9.15;;;;;;;11.57;78.24;101881.78;4967876;28;20065;-58
2022/05/13 06:27:33;;;;;;;24.25;9.57;;;;;;;11.63;77.84;101875.84;4967833;28;20041;-57
2022/05/13 06:29:59;;;;;;;23.25;9.25;;;;;;;11.68;77.86;101882.38;4966473;28;20113;-58
2022/05/13 06:32:24;;;;;;;21.50;9.77;;;;;;;11.74;77.92;101887.06;4968399;28;20448;-57
2022/05/13 06:34:49;;;;;;;26.88;9.30;;;;;;;11.75;77.80;101886.09;4969968;28;20034;-57
2022/05/13 06:37:14;;;;;;;22.40;9.23;;;;;;;11.76;77.73;101890.41;4969201;28;20027;-58
2022/05/13 06:39:40;;;;;;;20.73;9.43;;;;;;;11.78;77.74;101891.13;4969791;28;20026;-57
2022/05/13 06:42:05;;;;;;;23.35;9.93;;;;;;;11.86;77.78;101892.22;4966326;28;20027;-57
2022/05/13 06:44:31;;;;;;;22.70;9.43;;;;;;;11.92;78.32;101900.41;4976905;28;20027;-58
2022/05/13 06:46:56;;;;;;;23.13;9.82;;;;;;;12.02;77.80;101890.50;4967936;28;20301;-57
2022/05/13 06:49:21;;;;;;;20.98;10.15;;;;;;;12.17;77.50;101898.78;4968280;28;20562;-58
2022/05/13 06:51:46;;;;;;;22.77;10.00;;;;;;;12.26;77.71;101905.00;4974536;28;20023;-57
2022/05/13 06:54:12;;;;;;;23.95;10.25;;;;;;;12.33;77.35;101895.38;4974439;28;20034;-57
2022/05/13 06:56:41;;;;;;;26.90;10.25;;;;;;;12.37;77.05;101902.06;4968663;28;20436;-58
2022/05/13 06:59:07;;;;;;;24.55;9.75;;;;;;;12.45;76.53;101902.16;4968105;28;20119;-57
2022/05/13 07:01:33;;;;;;;21.48;9.27;;;;;;;12.49;76.22;101910.66;4965752;28;20584;-57
2022/05/13 07:03:59;;;;;;;22.08;10.27;;;;;;;12.48;76.36;101904.50;4969684;28;20129;-57
2022/05/13 07:06:24;;;;;;;21.23;9.95;;;;;;;12.60;76.22;101905.91;4969420;28;20213;-57
2022/05/13 07:08:50;;;;;;;20.95;8.82;;;;;;;12.69;75.85;101909.44;4968862;28;20106;-58
2022/05/13 07:11:19;;;;;;;24.58;9.20;;;;;;;12.82;75.68;101904.53;4968768;28;20027;-57
2022/05/13 07:13:45;;;;;;;21.05;9.25;;;;;;;12.86;75.08;101897.88;4969566;28;20057;-57
2022/05/13 07:16:11;;;;;;;20.35;8.10;;;;;;;13.01;75.11;101914.13;4969290;28;20054;-57
2022/05/13 07:18:38;;;;;;;21.92;8.20;;;;;;;13.07;74.06;101905.47;4968848;28;20480;-58
2022/05/13 07:21:04;;;;;;;20.05;8.15;;;;;;;13.19;74.12;101903.38;4969315;28;20583;-58
2022/05/13 07:23:32;;;;;;;21.83;8.52;;;;;;;13.32;74.40;101907.25;4969514;28;20054;-58
2022/05/13 07:25:58;;;;;;;16.25;7.07;;;;;;;13.43;73.14;101911.44;4967400;28;20046;-58
2022/05/13 07:28:26;;;;;;;16.27;7.60;;;;;;;13.45;72.42;101916.63;4967456;28;20039;-57
2022/05/13 07:30:52;;;;;;;20.55;7.72;;;;;;;13.44;72.11;101905.13;4968385;28;20102;-58
2022/05/13 07:33:17;;;;;;;21.85;8.23;;;;;;;13.57;72.63;101916.13;4969128;28;20133;-58
2022/05/13 07:35:43;;;;;;;17.63;7.45;;;;;;;13.65;72.25;101907.34;4968980;28;20022;-57
2022/05/13 07:38:08;;;;;;;19.52;7.30;;;;;;;13.65;71.54;101907.34;4967777;28;20034;-57
2022/05/13 07:43:18;;;;;;;17.20;6.57;;;;;;;13.60;70.62;101909.66;4959633;28;20049;-58
2022/05/13 07:45:43;;;;;;;14.48;6.47;;;;;;;13.67;70.61;101905.31;4958625;28;20030;-57
2022/05/13 07:48:09;;;;;;;18.58;6.25;;;;;;;13.72;70.08;101919.00;4963472;28;20038;-57
2022/05/13 07:50:34;;;;;;;15.70;5.53;;;;;;;13.67;69.99;101920.50;4975114;28;20057;-57
2022/05/13 07:53:00;;;;;;;13.88;6.32;;;;;;;13.70;70.13;101923.69;4968496;28;20053;-57
2022/05/13 07:55:26;;;;;;;15.43;5.50;;;;;;;13.71;70.10;101919.19;4965679;28;20027;-57
2022/05/13 07:57:52;;;;;;;15.02;5.90;;;;;;;13.67;70.10;101917.84;4967390;28;20267;-58
2022/05/13 08:00:25;;;;;;;16.17;5.75;;;;;;;13.63;69.61;101926.19;4971217;28;20037;-57
2022/05/13 08:03:01;;;;;;;15.75;5.40;;;;;;;13.54;69.38;101920.97;4971684;28;20026;-57
2022/05/13 08:05:30;;;;;;;16.63;5.72;;;;;;;13.42;69.24;101931.13;4964182;28;20035;-56
2022/05/13 08:08:05;;;;;;;19.67;5.93;;;;;;;13.38;69.78;101926.28;4956907;28;20043;-57
2022/05/13 08:10:31;;;;;;;19.02;5.53;;;;;;;13.33;69.77;101927.59;4965670;28;20110;-57
2022/05/13 08:12:57;;;;;;;16.08;5.50;;;;;;;13.32;70.17;101938.44;4968421;28;20149;-55
2022/05/13 08:15:22;;;;;;;14.63;5.53;;;;;;;13.30;69.73;101941.28;4968621;28;20502;-57
2022/05/13 08:17:48;;;;;;;11.57;5.57;;;;;;;13.33;69.58;101945.44;4967707;28;20552;-57
2022/05/13 08:20:13;;;;;;;15.18;5.40;;;;;;;13.39;69.69;101949.28;4967646;28;20039;-56
2022/05/13 08:22:38;;;;;;;12.55;5.40;;;;;;;13.43;69.88;101939.97;4967991;28;20042;-55
2022/05/13 08:25:04;;;;;;;15.55;5.78;;;;;;;13.54;69.98;101943.16;4968094;28;20034;-55
2022/05/13 08:27:32;;;;;;;17.65;6.03;;;;;;;13.62;69.66;101945.88;4970883;28;20027;-55
2022/05/13 08:29:58;;;;;;;13.55;5.57;;;;;;;13.69;69.24;101943.38;4967200;28;20041;-57
2022/05/13 08:32:24;;;;;;;13.65;5.35;;;;;;;13.80;69.37;101942.22;4966561;28;20034;-57
2022/05/13 08:34:49;;;;;;;19.65;5.10;;;;;;;13.83;68.43;101953.41;4962902;28;20035;-55
2022/05/13 08:37:14;;;;;;;17.48;5.07;;;;;;;13.85;68.91;101947.88;4964189;28;20039;-56
2022/05/13 08:39:40;;;;;;;17.10;5.22;;;;;;;13.83;68.99;101944.53;4964014;28;20519;-58
2022/05/13 08:42:25;;;;;;;15.07;5.30;;;;;;;13.83;68.51;101953.41;4965110;28;20480;-56
2022/05/13 08:44:53;;;;;;;10.55;4.53;;;;;;;13.74;68.02;101962.41;4965230;28;20118;-56
2022/05/13 08:47:37;;;;;;;12.02;3.95;;;;;;;13.64;67.71;101959.06;4965696;28;20046;-55
2022/05/13 08:50:32;;;;;;;15.75;4.20;;;;;;;13.59;67.41;101956.88;4962721;28;20034;-57
2022/05/13 08:53:11;;;;;;;7.53;3.45;;;;;;;13.59;67.30;101962.22;4963454;28;20047;-55
2022/05/13 08:55:50;;;;;;;12.65;4.40;;;;;;;13.65;67.15;101971.41;4963676;28;20401;-56
2022/05/13 08:58:23;;;;;;;12.32;3.83;;;;;;;13.69;67.18;101967.41;4966619;28;20035;-56
2022/05/13 09:00:51;;;;;;;11.05;4.13;;;;;;;13.73;67.15;101971.41;4961937;28;20034;-57
2022/05/13 09:03:30;;;;;;;12.98;4.28;;;;;;;13.83;66.71;101969.41;4967028;28;20484;-55
2022/05/13 09:05:55;;;;;;;;;;;;;;;14.05;67.10;101967.13;4962257;28;20050;-57
2022/05/13 09:08:22;;;;;;;10.15;3.88;;;;;;;14.47;67.38;101961.66;4964565;28;19910;-57
2022/05/13 09:11:11;;;;;;;11.57;3.50;;;;;;;14.73;65.46;101964.94;4965696;28;20779;-56
2022/05/13 09:13:49;;;;;;;9.50;3.60;;;;;;;14.81;64.64;101950.72;4968593;28;20117;-57
2022/05/13 09:16:24;;;;;;;9.80;3.40;;;;;;;14.89;64.38;101961.41;4964086;28;20200;-56
2022/05/13 09:18:58;;;;;;;7.75;3.10;;;;;;;14.91;63.40;101959.38;4968947;28;20034;-57
2022/05/13 09:21:23;;;;;;;13.73;3.33;;;;;;;15.06;64.16;101962.19;4966131;28;20105;-56
2022/05/13 09:23:48;;;;;;;11.05;3.45;;;;;;;15.28;63.39;101960.59;4968509;28;20494;-57
2022/05/13 09:26:23;;;;;;;11.57;3.53;;;;;;;15.44;62.36;101973.91;4962892;28;20090;-53
2022/05/13 09:29:11;;;;;;;11.15;3.40;;;;;;;15.62;61.56;101985.22;4966449;28;20030;-54
2022/05/13 09:32:08;;;;;;;9.68;3.28;;;;;;;15.78;60.86;101968.22;4967051;28;20440;-57
2022/05/13 09:34:39;;;;;;;12.02;3.30;;;;;;;15.99;60.07;101975.63;4964474;28;20338;-57
2022/05/13 09:37:21;;;;;;;11.82;3.50;;;;;;;16.20;59.62;101988.38;4969696;28;20431;-56
2022/05/13 09:39:50;;;;;;;11.07;3.28;;;;;;;16.17;59.08;101986.03;4964574;28;20030;-54
2022/05/13 09:42:26;;;;;;;11.50;3.72;;;;;;;16.14;58.53;101973.81;4967846;28;20562;-57
2022/05/13 09:45:09;;;;;;;7.38;2.50;;;;;;;16.16;57.72;101987.88;4969951;28;20042;-56
2022/05/13 09:47:35;;;;;;;11.80;3.08;;;;;;;16.10;56.80;101984.06;4970894;28;20057;-55
2022/05/13 09:50:01;;;;;;;11.55;2.95;;;;;;;16.15;56.98;101975.47;4971726;28;20396;-57
2022/05/13 09:52:32;;;;;;;12.93;3.25;;;;;;;16.09;56.83;101981.56;4971086;28;20023;-58
2022/05/13 09:55:13;;;;;;;5.90;2.10;;;;;;;16.14;56.06;101986.38;4973172;28;20030;-57
2022/05/13 09:57:39;;;;;;;7.72;1.88;;;;;;;15.90;54.56;101982.03;4969916;28;20109;-57
2022/05/13 10:00:15;;;;;;;7.65;2.00;;;;;;;15.77;54.64;101999.53;4970865;28;20026;-57
2022/05/13 10:02:49;;;;;;;7.88;2.55;;;;;;;15.94;55.17;101976.16;4970390;28;20146;-57
2022/05/13 10:05:17;;;;;;;8.43;2.25;;;;;;;16.04;55.27;101978.59;4970708;28;20392;-57
2022/05/13 10:07:51;;;;;;;7.67;2.10;;;;;;;16.04;55.03;101973.22;4970196;28;20125;-57
2022/05/13 10:16:16;;;;;;;7.90;2.25;;;;;;;16.07;54.95;101987.09;4968543;28;20688;-57
2022/05/13 10:19:04;;;;;;;7.70;2.13;;;;;;;16.25;54.04;101985.97;4968404;28;20544;-57
2022/05/13 10:21:37;;;;;;;7.13;2.20;;;;;;;16.60;54.42;101974.59;4969498;28;20023;-58
2022/05/13 10:24:08;;;;;;;9.02;2.25;;;;;;;16.79;53.26;101975.97;4970720;28;20050;-57
2022/05/13 10:26:37;;;;;;;8.65;2.35;;;;;;;16.99;53.39;101973.56;4970252;28;20050;-59
2022/05/13 10:29:21;;;;;;;7.40;2.20;;;;;;;17.21;53.09;101980.69;4969666;28;20019;-58
2022/05/13 10:31:49;;;;;;;7.35;2.33;;;;;;;16.97;52.27;101979.09;4967951;28;20063;-57
2022/05/13 10:34:27;;;;;;;7.22;2.65;;;;;;;16.90;52.97;101986.22;4969458;28;20030;-58
2022/05/13 10:37:04;;;;;;;9.18;2.40;;;;;;;16.66;52.39;101978.44;4969681;28;20038;-57
2022/05/13 10:39:59;;;;;;;7.30;2.70;;;;;;;16.36;52.58;101983.69;4970253;28;20030;-57
2022/05/13 10:42:35;;;;;;;7.47;2.60;;;;;;;16.29;53.14;101981.94;4968106;28;20039;-58
2022/05/13 10:45:17;;;;;;;8.55;2.80;;;;;;;16.49;53.46;101974.22;4967644;28;20034;-58
2022/05/13 10:47:52;;;;;;;10.20;3.20;;;;;;;16.65;53.38;101987.47;4969172;28;20026;-56
2022/05/13 10:50:21;;;;;;;8.10;2.50;;;;;;;16.72;53.29;101991.09;4964273;28;20084;-58
2022/05/13 10:53:12;;;;;;;6.63;2.70;;;;;;;16.70;52.94;101987.78;4969061;28;20042;-56
2022/05/13 10:55:59;;;;;;;9.38;2.58;;;;;;;16.59;52.52;101998.94;4969940;28;20031;-58
2022/05/13 10:58:50;;;;;;;11.00;2.60;;;;;;;16.45;52.75;101992.50;4969013;28;20064;-57
2022/05/13 11:01:39;;;;;;;7.13;2.75;;;;;;;16.66;53.13;101981.13;4969851;28;20454;-56
2022/05/13 11:04:41;;;;;;;7.82;2.60;;;;;;;16.85;53.17;101972.53;4970328;28;20116;-58
2022/05/13 11:07:26;;;;;;;10.75;2.65;;;;;;;16.87;52.53;101981.25;4965066;28;20539;-57
2022/05/13 11:10:20;;;;;;;9.07;2.70;;;;;;;16.78;52.80;101992.25;4969320;28;20499;-56
2022/05/13 11:12:57;;;;;;;8.10;2.50;;;;;;;16.81;53.49;101989.19;4966246;28;20031;-57
2022/05/13 11:15:37;;;;;;;8.48;2.40;;;;;;;16.73;53.38;102004.34;4969376;28;20061;-58
2022/05/13 11:18:31;;;;;;;9.90;2.70;;;;;;;16.70;52.77;101996.66;4968275;28;20069;-57
2022/05/13 11:21:10;;;;;;;6.75;2.08;;;;;;;16.64;52.47;101992.00;4966061;28;20106;-57
2022/05/13 11:25:54;;;;;;;9.80;2.88;;;;;;;16.87;53.39;101986.59;4968095;28;20096;-57
2022/05/13 11:26:41;;;;;;;8.15;2.20;;;;;;;17.19;52.67;101989.94;4968426;28;20035;-56
2022/05/13 11:29:06;;;;;;;7.65;2.47;;;;;;;17.35;52.57;101979.00;4969330;28;20030;-55
2022/05/13 11:32:18;;;;;;;6.72;1.83;;;;;;;17.38;51.44;101992.06;4968881;28;20026;-57
2022/05/13 11:35:03;;;;;;;8.13;2.13;;;;;;;17.28;50.97;101989.66;4969247;28;20121;-57
2022/05/13 11:37:33;;;;;;;8.50;1.70;;;;;;;17.39;50.64;101977.63;4967329;28;20027;-56
2022/05/13 11:40:22;;;;;;;5.65;1.55;;;;;;;17.50;50.16;101981.66;4968938;28;20073;-57
2022/05/13 11:43:18;;;;;;;;;;;;;;;17.64;49.59;101968.22;4969843;28;20023;-57
2022/05/13 11:46:01;;;;;;;5.18;1.40;;;;;;;17.89;48.31;101975.94;4966679;28;19917;-58
2022/05/13 11:48:45;;;;;;;4.15;1.52;;;;;;;18.10;48.74;102008.19;4967612;28;20026;-56
2022/05/13 11:51:15;;;;;;;8.55;1.63;;;;;;;18.16;47.96;101988.59;4967028;28;20125;-57
2022/05/13 11:53:40;;;;;;;6.97;1.88;;;;;;;18.09;47.61;101976.97;4963069;28;20038;-57
2022/05/13 11:56:14;;;;;;;9.95;1.75;;;;;;;18.19;48.35;101969.41;4966509;28;20565;-57